Terminal Aerodrome Forecast
Issued by NWS Huntsville, AL

Home | Current Version | Previous Version | Text Only | Print | Product List | Glossary On
Versions: 1 2 3 4 5 6 7 8 9 10 11 12 13 14
000
FTUS44 KHUN 212335
TAFHSV
TAF
KHSV 212335Z 2200/2224 13011G17KT P6SM SCT060 SCT250
     FM220500 11010KT P6SM BKN050 OVC100
     FM221000 11013G20KT 6SM -SHRA OVC020
     FM221500 12012KT 4SM SHRA BKN015 OVC025
     FM222000 13012G20KT 2SM SHRA BR BKN009 OVC015=

USA.gov is the U.S. government's official web portal to all federal, state and local government web resources and services.